sensor_id;sensor_type;location;lat;lon;timestamp;P1;durP1;ratioP1;P2;durP2;ratioP2
81170;SDS011;70644;44.818;20.478;2023-07-29T00:01:46;6.13;;;5.07;;
81170;SDS011;70644;44.818;20.478;2023-07-29T00:04:12;6.75;;;4.85;;
81170;SDS011;70644;44.818;20.478;2023-07-29T00:06:38;5.55;;;4.90;;
81170;SDS011;70644;44.818;20.478;2023-07-29T00:09:04;5.38;;;4.60;;
81170;SDS011;70644;44.818;20.478;2023-07-29T00:11:30;6.18;;;5.13;;
81170;SDS011;70644;44.818;20.478;2023-07-29T00:13:59;5.90;;;5.20;;
81170;SDS011;70644;44.818;20.478;2023-07-29T00:16:25;5.80;;;5.20;;
81170;SDS011;70644;44.818;20.478;2023-07-29T00:18:51;5.32;;;4.82;;
81170;SDS011;70644;44.818;20.478;2023-07-29T00:21:17;5.50;;;4.68;;
81170;SDS011;70644;44.818;20.478;2023-07-29T00:23:43;5.95;;;4.93;;
81170;SDS011;70644;44.818;20.478;2023-07-29T00:26:09;6.13;;;5.30;;
81170;SDS011;70644;44.818;20.478;2023-07-29T00:28:35;6.10;;;5.13;;
81170;SDS011;70644;44.818;20.478;2023-07-29T00:31:01;6.00;;;5.35;;
81170;SDS011;70644;44.818;20.478;2023-07-29T00:33:28;5.72;;;4.93;;
81170;SDS011;70644;44.818;20.478;2023-07-29T00:35:54;6.40;;;4.90;;
81170;SDS011;70644;44.818;20.478;2023-07-29T00:38:20;7.10;;;5.25;;
81170;SDS011;70644;44.818;20.478;2023-07-29T00:40:46;6.25;;;4.78;;
81170;SDS011;70644;44.818;20.478;2023-07-29T00:43:12;5.70;;;5.03;;
81170;SDS011;70644;44.818;20.478;2023-07-29T00:45:38;6.80;;;5.25;;
81170;SDS011;70644;44.818;20.478;2023-07-29T00:48:04;6.55;;;5.20;;
81170;SDS011;70644;44.818;20.478;2023-07-29T00:50:30;6.00;;;5.03;;
81170;SDS011;70644;44.818;20.478;2023-07-29T00:52:57;5.63;;;4.80;;
81170;SDS011;70644;44.818;20.478;2023-07-29T00:55:23;6.53;;;5.13;;
81170;SDS011;70644;44.818;20.478;2023-07-29T00:57:50;6.00;;;5.38;;
81170;SDS011;70644;44.818;20.478;2023-07-29T01:00:19;6.95;;;4.75;;
81170;SDS011;70644;44.818;20.478;2023-07-29T01:02:45;6.97;;;6.28;;
81170;SDS011;70644;44.818;20.478;2023-07-29T01:05:12;7.03;;;5.07;;
81170;SDS011;70644;44.818;20.478;2023-07-29T01:12:51;6.82;;;5.35;;
81170;SDS011;70644;44.818;20.478;2023-07-29T01:17:59;6.47;;;5.80;;
81170;SDS011;70644;44.818;20.478;2023-07-29T01:20:26;6.38;;;4.95;;
81170;SDS011;70644;44.818;20.478;2023-07-29T01:22:52;6.60;;;5.20;;
81170;SDS011;70644;44.818;20.478;2023-07-29T01:25:18;8.00;;;5.28;;
81170;SDS011;70644;44.818;20.478;2023-07-29T01:27:45;7.47;;;5.05;;
81170;SDS011;70644;44.818;20.478;2023-07-29T01:30:11;5.95;;;5.18;;
81170;SDS011;70644;44.818;20.478;2023-07-29T01:35:27;5.65;;;4.88;;
81170;SDS011;70644;44.818;20.478;2023-07-29T01:37:55;6.82;;;6.22;;
81170;SDS011;70644;44.818;20.478;2023-07-29T01:40:22;6.70;;;5.30;;
81170;SDS011;70644;44.818;20.478;2023-07-29T01:42:49;5.45;;;4.70;;
81170;SDS011;70644;44.818;20.478;2023-07-29T01:45:15;6.35;;;5.35;;
81170;SDS011;70644;44.818;20.478;2023-07-29T01:47:41;6.00;;;5.00;;
81170;SDS011;70644;44.818;20.478;2023-07-29T01:50:07;5.72;;;5.13;;
81170;SDS011;70644;44.818;20.478;2023-07-29T01:52:34;6.75;;;5.30;;
81170;SDS011;70644;44.818;20.478;2023-07-29T01:55:01;6.35;;;5.10;;
81170;SDS011;70644;44.818;20.478;2023-07-29T01:57:27;6.60;;;5.40;;
81170;SDS011;70644;44.818;20.478;2023-07-29T01:59:53;7.55;;;5.57;;
81170;SDS011;70644;44.818;20.478;2023-07-29T02:02:19;5.65;;;4.88;;
81170;SDS011;70644;44.818;20.478;2023-07-29T02:04:45;6.88;;;5.40;;
81170;SDS011;70644;44.818;20.478;2023-07-29T02:07:16;6.13;;;5.28;;
81170;SDS011;70644;44.818;20.478;2023-07-29T02:09:43;6.18;;;5.20;;
81170;SDS011;70644;44.818;20.478;2023-07-29T02:12:09;6.03;;;5.22;;
81170;SDS011;70644;44.818;20.478;2023-07-29T02:14:35;5.35;;;4.70;;
81170;SDS011;70644;44.818;20.478;2023-07-29T02:17:01;6.22;;;5.40;;
81170;SDS011;70644;44.818;20.478;2023-07-29T02:19:27;6.13;;;5.00;;
81170;SDS011;70644;44.818;20.478;2023-07-29T02:21:54;6.15;;;5.00;;
81170;SDS011;70644;44.818;20.478;2023-07-29T02:24:20;5.88;;;5.28;;
81170;SDS011;70644;44.818;20.478;2023-07-29T02:26:46;7.18;;;5.88;;
81170;SDS011;70644;44.818;20.478;2023-07-29T02:29:12;7.25;;;5.60;;
81170;SDS011;70644;44.818;20.478;2023-07-29T02:31:38;6.03;;;5.00;;
81170;SDS011;70644;44.818;20.478;2023-07-29T02:34:04;6.60;;;5.28;;
81170;SDS011;70644;44.818;20.478;2023-07-29T02:36:30;7.20;;;5.25;;
81170;SDS011;70644;44.818;20.478;2023-07-29T02:38:56;7.95;;;5.20;;
81170;SDS011;70644;44.818;20.478;2023-07-29T02:41:23;6.55;;;5.30;;
81170;SDS011;70644;44.818;20.478;2023-07-29T02:43:49;6.05;;;5.40;;
81170;SDS011;70644;44.818;20.478;2023-07-29T02:46:15;5.72;;;5.00;;
81170;SDS011;70644;44.818;20.478;2023-07-29T02:48:42;5.43;;;4.82;;
81170;SDS011;70644;44.818;20.478;2023-07-29T02:51:08;6.45;;;5.60;;
81170;SDS011;70644;44.818;20.478;2023-07-29T02:53:34;6.50;;;5.18;;
81170;SDS011;70644;44.818;20.478;2023-07-29T02:56:02;6.05;;;5.20;;
81170;SDS011;70644;44.818;20.478;2023-07-29T02:58:28;6.60;;;5.22;;
81170;SDS011;70644;44.818;20.478;2023-07-29T03:01:00;6.53;;;5.18;;
81170;SDS011;70644;44.818;20.478;2023-07-29T03:03:27;6.05;;;4.97;;
81170;SDS011;70644;44.818;20.478;2023-07-29T03:06:05;6.57;;;5.05;;
81170;SDS011;70644;44.818;20.478;2023-07-29T03:08:31;7.07;;;5.22;;
81170;SDS011;70644;44.818;20.478;2023-07-29T03:10:57;6.45;;;5.20;;
81170;SDS011;70644;44.818;20.478;2023-07-29T03:13:24;6.93;;;5.22;;
81170;SDS011;70644;44.818;20.478;2023-07-29T03:15:50;5.45;;;4.82;;
81170;SDS011;70644;44.818;20.478;2023-07-29T03:18:17;6.30;;;5.10;;
81170;SDS011;70644;44.818;20.478;2023-07-29T03:20:43;6.28;;;5.05;;
81170;SDS011;70644;44.818;20.478;2023-07-29T03:23:09;6.88;;;5.20;;
81170;SDS011;70644;44.818;20.478;2023-07-29T03:25:35;5.88;;;4.80;;
81170;SDS011;70644;44.818;20.478;2023-07-29T03:28:01;6.85;;;5.50;;
81170;SDS011;70644;44.818;20.478;2023-07-29T03:30:27;6.30;;;5.22;;
81170;SDS011;70644;44.818;20.478;2023-07-29T03:32:53;6.60;;;4.80;;
81170;SDS011;70644;44.818;20.478;2023-07-29T03:35:19;5.85;;;5.00;;
81170;SDS011;70644;44.818;20.478;2023-07-29T03:37:45;6.97;;;5.82;;
81170;SDS011;70644;44.818;20.478;2023-07-29T03:40:12;6.25;;;4.75;;
81170;SDS011;70644;44.818;20.478;2023-07-29T03:42:38;5.75;;;5.13;;
81170;SDS011;70644;44.818;20.478;2023-07-29T03:45:04;6.32;;;4.72;;
81170;SDS011;70644;44.818;20.478;2023-07-29T03:47:31;6.63;;;5.07;;
81170;SDS011;70644;44.818;20.478;2023-07-29T03:49:57;6.15;;;5.35;;
81170;SDS011;70644;44.818;20.478;2023-07-29T03:52:23;5.80;;;5.20;;
81170;SDS011;70644;44.818;20.478;2023-07-29T03:54:49;5.68;;;5.07;;
81170;SDS011;70644;44.818;20.478;2023-07-29T03:57:15;5.57;;;4.97;;
81170;SDS011;70644;44.818;20.478;2023-07-29T03:59:41;6.45;;;5.18;;
81170;SDS011;70644;44.818;20.478;2023-07-29T04:02:07;5.90;;;5.15;;
81170;SDS011;70644;44.818;20.478;2023-07-29T04:04:34;6.07;;;5.00;;
81170;SDS011;70644;44.818;20.478;2023-07-29T04:07:00;6.53;;;4.93;;
81170;SDS011;70644;44.818;20.478;2023-07-29T04:09:26;5.78;;;4.57;;
81170;SDS011;70644;44.818;20.478;2023-07-29T04:11:52;6.22;;;5.00;;
81170;SDS011;70644;44.818;20.478;2023-07-29T04:14:18;6.63;;;5.03;;
81170;SDS011;70644;44.818;20.478;2023-07-29T04:16:44;5.22;;;4.72;;
81170;SDS011;70644;44.818;20.478;2023-07-29T04:19:10;5.78;;;4.85;;
81170;SDS011;70644;44.818;20.478;2023-07-29T04:21:36;6.05;;;5.28;;
81170;SDS011;70644;44.818;20.478;2023-07-29T04:24:02;6.63;;;4.78;;
81170;SDS011;70644;44.818;20.478;2023-07-29T04:26:28;6.13;;;4.63;;
81170;SDS011;70644;44.818;20.478;2023-07-29T04:28:54;6.30;;;5.70;;
81170;SDS011;70644;44.818;20.478;2023-07-29T04:31:20;7.60;;;5.43;;
81170;SDS011;70644;44.818;20.478;2023-07-29T04:33:46;5.78;;;4.78;;
81170;SDS011;70644;44.818;20.478;2023-07-29T04:36:12;5.63;;;5.03;;
81170;SDS011;70644;44.818;20.478;2023-07-29T04:38:39;6.60;;;5.18;;
81170;SDS011;70644;44.818;20.478;2023-07-29T04:41:05;6.72;;;4.90;;
81170;SDS011;70644;44.818;20.478;2023-07-29T04:43:32;6.13;;;5.10;;
81170;SDS011;70644;44.818;20.478;2023-07-29T04:45:58;5.85;;;4.60;;
81170;SDS011;70644;44.818;20.478;2023-07-29T04:48:25;7.20;;;6.50;;
81170;SDS011;70644;44.818;20.478;2023-07-29T04:50:51;5.90;;;4.78;;
81170;SDS011;70644;44.818;20.478;2023-07-29T04:53:17;5.93;;;5.03;;
81170;SDS011;70644;44.818;20.478;2023-07-29T04:55:43;6.10;;;4.85;;
81170;SDS011;70644;44.818;20.478;2023-07-29T04:58:09;6.18;;;4.70;;
81170;SDS011;70644;44.818;20.478;2023-07-29T05:00:35;5.90;;;4.55;;
81170;SDS011;70644;44.818;20.478;2023-07-29T05:03:01;8.57;;;6.13;;
81170;SDS011;70644;44.818;20.478;2023-07-29T05:05:27;10.50;;;6.45;;
81170;SDS011;70644;44.818;20.478;2023-07-29T05:07:54;10.05;;;6.00;;
81170;SDS011;70644;44.818;20.478;2023-07-29T05:10:20;8.32;;;6.00;;
81170;SDS011;70644;44.818;20.478;2023-07-29T05:12:46;10.32;;;6.03;;
81170;SDS011;70644;44.818;20.478;2023-07-29T05:15:12;9.95;;;6.43;;
81170;SDS011;70644;44.818;20.478;2023-07-29T05:17:38;14.55;;;5.90;;
81170;SDS011;70644;44.818;20.478;2023-07-29T05:20:04;7.95;;;5.90;;
81170;SDS011;70644;44.818;20.478;2023-07-29T05:22:30;8.55;;;5.50;;
81170;SDS011;70644;44.818;20.478;2023-07-29T05:24:57;7.43;;;5.82;;
81170;SDS011;70644;44.818;20.478;2023-07-29T05:27:23;7.35;;;5.47;;
81170;SDS011;70644;44.818;20.478;2023-07-29T05:29:49;7.47;;;5.95;;
81170;SDS011;70644;44.818;20.478;2023-07-29T05:32:15;8.57;;;6.00;;
81170;SDS011;70644;44.818;20.478;2023-07-29T05:34:41;7.10;;;5.82;;
81170;SDS011;70644;44.818;20.478;2023-07-29T05:37:07;7.65;;;5.35;;
81170;SDS011;70644;44.818;20.478;2023-07-29T05:39:33;9.90;;;6.10;;
81170;SDS011;70644;44.818;20.478;2023-07-29T05:41:59;9.10;;;5.70;;
81170;SDS011;70644;44.818;20.478;2023-07-29T05:44:28;8.70;;;6.00;;
81170;SDS011;70644;44.818;20.478;2023-07-29T05:46:55;7.00;;;5.45;;
81170;SDS011;70644;44.818;20.478;2023-07-29T05:49:22;8.50;;;5.82;;
81170;SDS011;70644;44.818;20.478;2023-07-29T05:51:48;6.95;;;5.60;;
81170;SDS011;70644;44.818;20.478;2023-07-29T05:54:15;8.20;;;6.60;;
81170;SDS011;70644;44.818;20.478;2023-07-29T05:56:41;8.50;;;6.22;;
81170;SDS011;70644;44.818;20.478;2023-07-29T05:59:07;7.65;;;6.38;;
81170;SDS011;70644;44.818;20.478;2023-07-29T06:01:33;7.03;;;5.50;;
81170;SDS011;70644;44.818;20.478;2023-07-29T06:04:00;7.00;;;5.50;;
81170;SDS011;70644;44.818;20.478;2023-07-29T06:06:26;7.22;;;5.40;;
81170;SDS011;70644;44.818;20.478;2023-07-29T06:08:52;5.63;;;4.93;;
81170;SDS011;70644;44.818;20.478;2023-07-29T06:11:18;7.15;;;5.72;;
81170;SDS011;70644;44.818;20.478;2023-07-29T06:13:45;6.65;;;5.43;;
81170;SDS011;70644;44.818;20.478;2023-07-29T06:16:11;6.97;;;5.60;;
81170;SDS011;70644;44.818;20.478;2023-07-29T06:18:37;8.00;;;5.05;;
81170;SDS011;70644;44.818;20.478;2023-07-29T06:21:03;6.47;;;5.25;;
81170;SDS011;70644;44.818;20.478;2023-07-29T06:23:32;7.15;;;5.35;;
81170;SDS011;70644;44.818;20.478;2023-07-29T06:25:59;7.30;;;5.18;;
81170;SDS011;70644;44.818;20.478;2023-07-29T06:28:25;6.07;;;5.15;;
81170;SDS011;70644;44.818;20.478;2023-07-29T06:30:52;6.15;;;5.20;;
81170;SDS011;70644;44.818;20.478;2023-07-29T06:33:18;7.50;;;5.70;;
81170;SDS011;70644;44.818;20.478;2023-07-29T06:35:44;6.45;;;5.05;;
81170;SDS011;70644;44.818;20.478;2023-07-29T06:38:10;6.25;;;5.22;;
81170;SDS011;70644;44.818;20.478;2023-07-29T06:40:36;7.30;;;4.72;;
81170;SDS011;70644;44.818;20.478;2023-07-29T06:43:02;6.20;;;4.88;;
81170;SDS011;70644;44.818;20.478;2023-07-29T06:45:28;5.70;;;4.60;;
81170;SDS011;70644;44.818;20.478;2023-07-29T06:47:54;6.30;;;4.90;;
81170;SDS011;70644;44.818;20.478;2023-07-29T06:50:21;5.88;;;4.70;;
81170;SDS011;70644;44.818;20.478;2023-07-29T06:52:47;6.35;;;4.90;;
81170;SDS011;70644;44.818;20.478;2023-07-29T06:55:13;5.85;;;4.97;;
81170;SDS011;70644;44.818;20.478;2023-07-29T06:57:39;7.03;;;4.82;;
81170;SDS011;70644;44.818;20.478;2023-07-29T07:00:05;6.20;;;4.65;;
81170;SDS011;70644;44.818;20.478;2023-07-29T07:02:31;5.88;;;4.70;;
81170;SDS011;70644;44.818;20.478;2023-07-29T07:04:57;7.45;;;5.20;;
81170;SDS011;70644;44.818;20.478;2023-07-29T07:07:23;6.32;;;4.65;;
81170;SDS011;70644;44.818;20.478;2023-07-29T07:09:49;6.47;;;4.78;;
81170;SDS011;70644;44.818;20.478;2023-07-29T07:12:15;6.25;;;4.88;;
81170;SDS011;70644;44.818;20.478;2023-07-29T07:14:42;6.63;;;4.82;;
81170;SDS011;70644;44.818;20.478;2023-07-29T07:17:08;5.72;;;5.13;;
81170;SDS011;70644;44.818;20.478;2023-07-29T07:19:34;5.63;;;4.75;;
81170;SDS011;70644;44.818;20.478;2023-07-29T07:22:00;6.10;;;4.75;;
81170;SDS011;70644;44.818;20.478;2023-07-29T07:24:26;6.25;;;4.88;;
81170;SDS011;70644;44.818;20.478;2023-07-29T07:26:52;6.78;;;4.35;;
81170;SDS011;70644;44.818;20.478;2023-07-29T07:29:18;6.43;;;4.85;;
81170;SDS011;70644;44.818;20.478;2023-07-29T07:31:49;5.70;;;4.60;;
81170;SDS011;70644;44.818;20.478;2023-07-29T07:34:17;6.32;;;4.90;;
81170;SDS011;70644;44.818;20.478;2023-07-29T07:36:43;5.47;;;4.53;;
81170;SDS011;70644;44.818;20.478;2023-07-29T07:39:09;6.70;;;4.68;;
81170;SDS011;70644;44.818;20.478;2023-07-29T07:41:35;5.05;;;4.43;;
81170;SDS011;70644;44.818;20.478;2023-07-29T07:44:01;6.10;;;4.47;;
81170;SDS011;70644;44.818;20.478;2023-07-29T07:46:28;6.30;;;4.50;;
81170;SDS011;70644;44.818;20.478;2023-07-29T07:48:54;5.55;;;4.40;;
81170;SDS011;70644;44.818;20.478;2023-07-29T07:51:20;5.38;;;4.63;;
81170;SDS011;70644;44.818;20.478;2023-07-29T07:53:46;6.53;;;4.28;;
81170;SDS011;70644;44.818;20.478;2023-07-29T07:56:12;5.10;;;4.30;;
81170;SDS011;70644;44.818;20.478;2023-07-29T07:58:38;5.43;;;4.45;;
81170;SDS011;70644;44.818;20.478;2023-07-29T08:01:05;6.35;;;4.30;;
81170;SDS011;70644;44.818;20.478;2023-07-29T08:03:31;5.60;;;4.40;;
81170;SDS011;70644;44.818;20.478;2023-07-29T08:05:58;6.10;;;4.60;;
81170;SDS011;70644;44.818;20.478;2023-07-29T08:08:24;5.40;;;4.35;;
81170;SDS011;70644;44.818;20.478;2023-07-29T08:10:52;5.65;;;4.50;;
81170;SDS011;70644;44.818;20.478;2023-07-29T08:13:18;5.80;;;4.75;;
81170;SDS011;70644;44.818;20.478;2023-07-29T08:15:48;6.32;;;4.43;;
81170;SDS011;70644;44.818;20.478;2023-07-29T08:18:14;5.20;;;4.53;;
81170;SDS011;70644;44.818;20.478;2023-07-29T08:20:41;5.90;;;4.72;;
81170;SDS011;70644;44.818;20.478;2023-07-29T08:23:07;5.90;;;5.30;;
81170;SDS011;70644;44.818;20.478;2023-07-29T08:25:34;6.68;;;5.47;;
81170;SDS011;70644;44.818;20.478;2023-07-29T08:28:00;5.57;;;4.15;;
81170;SDS011;70644;44.818;20.478;2023-07-29T08:30:26;5.70;;;4.35;;
81170;SDS011;70644;44.818;20.478;2023-07-29T08:32:53;5.95;;;4.22;;
81170;SDS011;70644;44.818;20.478;2023-07-29T08:35:19;4.70;;;4.20;;
81170;SDS011;70644;44.818;20.478;2023-07-29T08:37:45;4.65;;;3.95;;
81170;SDS011;70644;44.818;20.478;2023-07-29T08:40:12;4.65;;;3.88;;
81170;SDS011;70644;44.818;20.478;2023-07-29T08:42:39;4.88;;;4.20;;
81170;SDS011;70644;44.818;20.478;2023-07-29T08:45:06;5.20;;;4.13;;
81170;SDS011;70644;44.818;20.478;2023-07-29T08:47:33;6.45;;;4.53;;
81170;SDS011;70644;44.818;20.478;2023-07-29T08:50:00;5.22;;;3.97;;
81170;SDS011;70644;44.818;20.478;2023-07-29T08:52:29;4.97;;;4.10;;
81170;SDS011;70644;44.818;20.478;2023-07-29T08:54:57;4.90;;;3.83;;
81170;SDS011;70644;44.818;20.478;2023-07-29T08:57:23;5.50;;;4.97;;
81170;SDS011;70644;44.818;20.478;2023-07-29T08:59:50;5.25;;;4.35;;
81170;SDS011;70644;44.818;20.478;2023-07-29T09:02:16;6.00;;;4.20;;
81170;SDS011;70644;44.818;20.478;2023-07-29T09:04:43;5.00;;;3.80;;
81170;SDS011;70644;44.818;20.478;2023-07-29T09:07:09;6.93;;;5.40;;
81170;SDS011;70644;44.818;20.478;2023-07-29T09:09:35;7.30;;;4.47;;
81170;SDS011;70644;44.818;20.478;2023-07-29T09:12:01;5.10;;;4.05;;
81170;SDS011;70644;44.818;20.478;2023-07-29T09:14:28;4.97;;;4.15;;
81170;SDS011;70644;44.818;20.478;2023-07-29T09:16:54;6.40;;;4.43;;
81170;SDS011;70644;44.818;20.478;2023-07-29T09:19:20;6.22;;;4.32;;
81170;SDS011;70644;44.818;20.478;2023-07-29T09:21:46;5.78;;;4.40;;
81170;SDS011;70644;44.818;20.478;2023-07-29T09:24:14;6.22;;;4.57;;
81170;SDS011;70644;44.818;20.478;2023-07-29T09:26:41;4.47;;;4.03;;
81170;SDS011;70644;44.818;20.478;2023-07-29T09:29:14;5.35;;;3.90;;
81170;SDS011;70644;44.818;20.478;2023-07-29T09:31:40;6.32;;;4.18;;
81170;SDS011;70644;44.818;20.478;2023-07-29T09:34:06;5.68;;;4.10;;
81170;SDS011;70644;44.818;20.478;2023-07-29T09:36:33;5.65;;;4.90;;
81170;SDS011;70644;44.818;20.478;2023-07-29T09:39:01;4.35;;;3.72;;
81170;SDS011;70644;44.818;20.478;2023-07-29T09:41:28;6.22;;;4.03;;
81170;SDS011;70644;44.818;20.478;2023-07-29T09:44:01;4.95;;;4.45;;
81170;SDS011;70644;44.818;20.478;2023-07-29T09:46:35;5.57;;;3.70;;
81170;SDS011;70644;44.818;20.478;2023-07-29T09:49:02;5.90;;;3.95;;
81170;SDS011;70644;44.818;20.478;2023-07-29T09:51:28;4.93;;;4.07;;
81170;SDS011;70644;44.818;20.478;2023-07-29T09:53:54;4.55;;;3.97;;
81170;SDS011;70644;44.818;20.478;2023-07-29T09:56:25;4.15;;;3.75;;
81170;SDS011;70644;44.818;20.478;2023-07-29T09:58:51;4.38;;;3.95;;
81170;SDS011;70644;44.818;20.478;2023-07-29T10:01:19;4.28;;;3.70;;
81170;SDS011;70644;44.818;20.478;2023-07-29T10:03:45;5.53;;;4.13;;
81170;SDS011;70644;44.818;20.478;2023-07-29T10:06:11;4.80;;;3.85;;
81170;SDS011;70644;44.818;20.478;2023-07-29T10:08:39;4.93;;;3.95;;
81170;SDS011;70644;44.818;20.478;2023-07-29T10:11:06;5.43;;;4.05;;
81170;SDS011;70644;44.818;20.478;2023-07-29T10:13:32;4.47;;;3.80;;
81170;SDS011;70644;44.818;20.478;2023-07-29T10:15:59;4.55;;;3.90;;
81170;SDS011;70644;44.818;20.478;2023-07-29T10:18:28;5.10;;;3.90;;
81170;SDS011;70644;44.818;20.478;2023-07-29T10:20:54;5.20;;;3.90;;
81170;SDS011;70644;44.818;20.478;2023-07-29T10:23:22;5.55;;;3.80;;
81170;SDS011;70644;44.818;20.478;2023-07-29T10:25:50;5.25;;;3.92;;
81170;SDS011;70644;44.818;20.478;2023-07-29T10:28:19;4.90;;;3.70;;
81170;SDS011;70644;44.818;20.478;2023-07-29T10:30:46;5.45;;;4.20;;
81170;SDS011;70644;44.818;20.478;2023-07-29T10:33:12;4.53;;;3.90;;
81170;SDS011;70644;44.818;20.478;2023-07-29T10:35:38;5.00;;;3.70;;
81170;SDS011;70644;44.818;20.478;2023-07-29T10:38:05;5.32;;;4.03;;
81170;SDS011;70644;44.818;20.478;2023-07-29T10:40:46;5.88;;;3.78;;
81170;SDS011;70644;44.818;20.478;2023-07-29T10:43:12;4.95;;;3.92;;
81170;SDS011;70644;44.818;20.478;2023-07-29T10:45:40;4.70;;;3.85;;
81170;SDS011;70644;44.818;20.478;2023-07-29T10:48:10;5.07;;;3.72;;
81170;SDS011;70644;44.818;20.478;2023-07-29T10:50:38;4.32;;;3.90;;
81170;SDS011;70644;44.818;20.478;2023-07-29T10:53:04;4.63;;;4.03;;
81170;SDS011;70644;44.818;20.478;2023-07-29T10:55:34;4.97;;;4.05;;
81170;SDS011;70644;44.818;20.478;2023-07-29T10:58:05;4.40;;;3.83;;
81170;SDS011;70644;44.818;20.478;2023-07-29T11:00:32;5.15;;;4.00;;
81170;SDS011;70644;44.818;20.478;2023-07-29T11:03:16;4.55;;;4.03;;
81170;SDS011;70644;44.818;20.478;2023-07-29T11:05:52;4.40;;;4.00;;
81170;SDS011;70644;44.818;20.478;2023-07-29T11:10:45;4.63;;;4.10;;
81170;SDS011;70644;44.818;20.478;2023-07-29T11:13:22;5.70;;;3.92;;
81170;SDS011;70644;44.818;20.478;2023-07-29T11:15:48;4.82;;;4.30;;
81170;SDS011;70644;44.818;20.478;2023-07-29T11:18:16;5.68;;;4.13;;
81170;SDS011;70644;44.818;20.478;2023-07-29T11:20:42;5.43;;;4.43;;
81170;SDS011;70644;44.818;20.478;2023-07-29T11:23:10;4.70;;;4.20;;
81170;SDS011;70644;44.818;20.478;2023-07-29T11:25:36;5.32;;;4.07;;
81170;SDS011;70644;44.818;20.478;2023-07-29T11:28:03;6.03;;;4.47;;
81170;SDS011;70644;44.818;20.478;2023-07-29T11:30:29;6.22;;;4.40;;
81170;SDS011;70644;44.818;20.478;2023-07-29T11:32:57;5.57;;;5.05;;
81170;SDS011;70644;44.818;20.478;2023-07-29T11:35:23;5.45;;;4.30;;
81170;SDS011;70644;44.818;20.478;2023-07-29T11:37:50;6.05;;;4.88;;
81170;SDS011;70644;44.818;20.478;2023-07-29T11:40:17;5.60;;;4.90;;
81170;SDS011;70644;44.818;20.478;2023-07-29T11:42:44;5.13;;;4.63;;
81170;SDS011;70644;44.818;20.478;2023-07-29T11:45:11;6.80;;;5.70;;
81170;SDS011;70644;44.818;20.478;2023-07-29T11:47:38;6.03;;;5.15;;
81170;SDS011;70644;44.818;20.478;2023-07-29T11:50:05;6.38;;;5.53;;
81170;SDS011;70644;44.818;20.478;2023-07-29T11:52:35;5.82;;;4.95;;
81170;SDS011;70644;44.818;20.478;2023-07-29T11:55:02;6.70;;;5.18;;
81170;SDS011;70644;44.818;20.478;2023-07-29T11:57:38;6.40;;;5.72;;
81170;SDS011;70644;44.818;20.478;2023-07-29T12:00:08;6.32;;;5.45;;
81170;SDS011;70644;44.818;20.478;2023-07-29T12:02:40;6.30;;;5.60;;
81170;SDS011;70644;44.818;20.478;2023-07-29T12:05:06;6.65;;;5.80;;
81170;SDS011;70644;44.818;20.478;2023-07-29T12:07:33;7.25;;;6.22;;
81170;SDS011;70644;44.818;20.478;2023-07-29T12:09:59;6.97;;;6.22;;
81170;SDS011;70644;44.818;20.478;2023-07-29T12:12:25;7.05;;;5.47;;
81170;SDS011;70644;44.818;20.478;2023-07-29T12:14:53;7.43;;;6.63;;
81170;SDS011;70644;44.818;20.478;2023-07-29T12:19:46;7.20;;;6.32;;
81170;SDS011;70644;44.818;20.478;2023-07-29T12:22:12;6.97;;;6.28;;
81170;SDS011;70644;44.818;20.478;2023-07-29T12:24:43;8.38;;;7.50;;
81170;SDS011;70644;44.818;20.478;2023-07-29T12:27:12;7.88;;;7.07;;
81170;SDS011;70644;44.818;20.478;2023-07-29T12:29:42;7.15;;;6.45;;
81170;SDS011;70644;44.818;20.478;2023-07-29T12:32:09;7.88;;;6.90;;
81170;SDS011;70644;44.818;20.478;2023-07-29T12:34:35;7.78;;;6.97;;
81170;SDS011;70644;44.818;20.478;2023-07-29T12:37:03;8.95;;;6.95;;
81170;SDS011;70644;44.818;20.478;2023-07-29T12:39:32;8.60;;;7.70;;
81170;SDS011;70644;44.818;20.478;2023-07-29T12:41:58;8.10;;;7.22;;
81170;SDS011;70644;44.818;20.478;2023-07-29T12:44:31;8.65;;;7.85;;
81170;SDS011;70644;44.818;20.478;2023-07-29T12:46:58;8.48;;;7.60;;
81170;SDS011;70644;44.818;20.478;2023-07-29T12:49:24;8.52;;;7.72;;
81170;SDS011;70644;44.818;20.478;2023-07-29T12:51:50;9.25;;;7.97;;
81170;SDS011;70644;44.818;20.478;2023-07-29T12:54:16;9.55;;;8.52;;
81170;SDS011;70644;44.818;20.478;2023-07-29T12:56:42;8.90;;;8.00;;
81170;SDS011;70644;44.818;20.478;2023-07-29T12:59:08;9.15;;;8.10;;
81170;SDS011;70644;44.818;20.478;2023-07-29T13:01:34;8.98;;;8.07;;
81170;SDS011;70644;44.818;20.478;2023-07-29T13:04:00;9.43;;;8.43;;
81170;SDS011;70644;44.818;20.478;2023-07-29T13:06:26;9.70;;;8.77;;
81170;SDS011;70644;44.818;20.478;2023-07-29T13:08:52;9.25;;;8.35;;
81170;SDS011;70644;44.818;20.478;2023-07-29T13:11:18;8.82;;;7.88;;
81170;SDS011;70644;44.818;20.478;2023-07-29T13:13:44;8.45;;;7.65;;
81170;SDS011;70644;44.818;20.478;2023-07-29T13:16:11;9.38;;;7.93;;
81170;SDS011;70644;44.818;20.478;2023-07-29T13:18:37;8.77;;;7.88;;
81170;SDS011;70644;44.818;20.478;2023-07-29T13:21:06;9.02;;;8.13;;
81170;SDS011;70644;44.818;20.478;2023-07-29T13:23:32;8.68;;;7.80;;
81170;SDS011;70644;44.818;20.478;2023-07-29T13:25:58;9.15;;;8.23;;
81170;SDS011;70644;44.818;20.478;2023-07-29T13:28:24;9.45;;;8.55;;
81170;SDS011;70644;44.818;20.478;2023-07-29T13:30:50;8.80;;;7.90;;
81170;SDS011;70644;44.818;20.478;2023-07-29T13:33:16;9.15;;;8.18;;
81170;SDS011;70644;44.818;20.478;2023-07-29T13:35:42;8.30;;;7.50;;
81170;SDS011;70644;44.818;20.478;2023-07-29T13:38:09;8.93;;;8.02;;
81170;SDS011;70644;44.818;20.478;2023-07-29T13:40:36;9.05;;;8.15;;
81170;SDS011;70644;44.818;20.478;2023-07-29T13:43:02;9.88;;;8.40;;
81170;SDS011;70644;44.818;20.478;2023-07-29T13:45:28;9.30;;;8.40;;
81170;SDS011;70644;44.818;20.478;2023-07-29T13:47:56;9.27;;;8.38;;
81170;SDS011;70644;44.818;20.478;2023-07-29T13:50:23;9.25;;;8.25;;
81170;SDS011;70644;44.818;20.478;2023-07-29T13:52:49;10.10;;;9.23;;
81170;SDS011;70644;44.818;20.478;2023-07-29T13:55:15;10.93;;;9.85;;
81170;SDS011;70644;44.818;20.478;2023-07-29T13:57:41;9.05;;;8.15;;
81170;SDS011;70644;44.818;20.478;2023-07-29T14:00:07;9.73;;;8.25;;
81170;SDS011;70644;44.818;20.478;2023-07-29T14:02:33;8.98;;;8.07;;
81170;SDS011;70644;44.818;20.478;2023-07-29T14:04:59;9.25;;;8.35;;
81170;SDS011;70644;44.818;20.478;2023-07-29T14:07:25;9.25;;;8.35;;
81170;SDS011;70644;44.818;20.478;2023-07-29T14:09:51;9.82;;;8.85;;
81170;SDS011;70644;44.818;20.478;2023-07-29T14:12:17;9.82;;;8.82;;
81170;SDS011;70644;44.818;20.478;2023-07-29T14:14:44;10.05;;;8.90;;
81170;SDS011;70644;44.818;20.478;2023-07-29T14:17:10;9.70;;;8.70;;
81170;SDS011;70644;44.818;20.478;2023-07-29T14:19:36;9.68;;;8.70;;
81170;SDS011;70644;44.818;20.478;2023-07-29T14:22:03;9.35;;;8.45;;
81170;SDS011;70644;44.818;20.478;2023-07-29T14:24:29;9.73;;;8.73;;
81170;SDS011;70644;44.818;20.478;2023-07-29T14:26:55;9.80;;;8.80;;
81170;SDS011;70644;44.818;20.478;2023-07-29T14:29:21;10.27;;;9.27;;
81170;SDS011;70644;44.818;20.478;2023-07-29T14:31:47;9.60;;;8.70;;
81170;SDS011;70644;44.818;20.478;2023-07-29T14:34:13;11.48;;;10.27;;
81170;SDS011;70644;44.818;20.478;2023-07-29T14:36:39;10.25;;;9.13;;
81170;SDS011;70644;44.818;20.478;2023-07-29T14:39:05;9.70;;;8.57;;
81170;SDS011;70644;44.818;20.478;2023-07-29T14:41:31;9.70;;;8.65;;
81170;SDS011;70644;44.818;20.478;2023-07-29T14:43:57;9.75;;;8.75;;
81170;SDS011;70644;44.818;20.478;2023-07-29T14:46:23;10.13;;;8.80;;